Time;durP1;ratioP1;P1;durP2;ratioP2;P2;SDS_P1;SDS_P2;PMS_P1;PMS_P2;Temp;Humidity;BMP_temperature;BMP_pressure;BME280_temperature;BME280_humidity;BME280_pressure;Samples;Min_cycle;Max_cycle;Signal;HPM_P1;HPM_P2
2022/09/13 00:01:20;;;;;;;0.93;0.60;;;;;;;;;;4129891;28;20403;-42
2022/09/13 00:03:21;;;;;;;0.32;0.30;;;;;;;;;;4146564;28;20072;-44
2022/09/13 00:05:22;;;;;;;1.10;0.60;;;;;;;;;;4147190;28;20108;-44
2022/09/13 00:07:23;;;;;;;0.65;0.40;;;;;;;;;;4145913;28;20148;-43
2022/09/13 00:09:25;;;;;;;0.60;0.40;;;;;;;;;;4131103;28;20065;-43
2022/09/13 00:11:30;;;;;;;0.50;0.50;;;;;;;;;;4130813;28;20486;-43
2022/09/13 00:13:31;;;;;;;0.70;0.50;;;;;;;;;;4129417;28;20461;-42
2022/09/13 00:15:33;;;;;;;0.43;0.30;;;;;;;;;;4130574;28;20708;-43
2022/09/13 00:17:34;;;;;;;0.88;0.40;;;;;;;;;;4130035;28;20050;-44
2022/09/13 00:19:36;;;;;;;0.30;0.30;;;;;;;;;;4134241;28;20520;-42
2022/09/13 00:21:37;;;;;;;0.40;0.40;;;;;;;;;;4161883;28;20060;-43
2022/09/13 00:23:40;;;;;;;0.40;0.30;;;;;;;;;;4148777;28;20054;-42
2022/09/13 00:25:41;;;;;;;0.50;0.40;;;;;;;;;;4149779;28;20057;-43
2022/09/13 00:27:43;;;;;;;0.85;0.47;;;;;;;;;;4149850;28;20505;-43
2022/09/13 00:29:45;;;;;;;0.30;0.30;;;;;;;;;;4149826;28;20450;-42
2022/09/13 00:31:46;;;;;;;0.77;0.70;;;;;;;;;;4150043;28;20054;-42
2022/09/13 00:33:47;;;;;;;0.47;0.40;;;;;;;;;;4149336;28;20104;-42
2022/09/13 00:35:48;;;;;;;0.75;0.45;;;;;;;;;;4149565;28;20358;-43
2022/09/13 00:37:49;;;;;;;0.40;0.40;;;;;;;;;;4149767;28;20056;-42
2022/09/13 00:39:50;;;;;;;0.30;0.30;;;;;;;;;;4149510;28;20507;-43
2022/09/13 00:41:52;;;;;;;0.52;0.52;;;;;;;;;;4148507;28;20085;-43
2022/09/13 00:43:59;;;;;;;0.85;0.55;;;;;;;;;;4149549;28;20450;-43
2022/09/13 00:46:00;;;;;;;0.80;0.50;;;;;;;;;;4149414;28;20104;-42
2022/09/13 00:48:05;;;;;;;0.80;0.50;;;;;;;;;;4131878;28;20387;-44
2022/09/13 00:50:10;;;;;;;1.65;0.40;;;;;;;;;;4137769;28;20093;-43
2022/09/13 00:52:15;;;;;;;2.10;0.40;;;;;;;;;;4147525;28;20061;-44
2022/09/13 00:54:19;;;;;;;0.77;0.50;;;;;;;;;;4145907;28;20069;-43
2022/09/13 00:56:25;;;;;;;0.40;0.40;;;;;;;;;;4147493;28;20112;-43
2022/09/13 00:58:29;;;;;;;0.50;0.50;;;;;;;;;;4147051;28;20116;-43
2022/09/13 01:00:30;;;;;;;0.60;0.43;;;;;;;;;;4147416;28;20058;-43
2022/09/13 01:02:32;;;;;;;0.47;0.40;;;;;;;;;;4146558;28;20113;-43
2022/09/13 01:04:34;;;;;;;0.52;0.40;;;;;;;;;;4147546;28;20103;-43
2022/09/13 01:06:37;;;;;;;0.60;0.60;;;;;;;;;;4145956;28;20556;-43
2022/09/13 01:08:40;;;;;;;0.30;0.30;;;;;;;;;;4162224;28;20053;-42
2022/09/13 01:10:43;;;;;;;0.50;0.40;;;;;;;;;;4147231;28;20116;-43
2022/09/13 01:12:53;;;;;;;0.40;0.40;;;;;;;;;;4146063;28;20061;-43
2022/09/13 01:14:56;;;;;;;0.63;0.40;;;;;;;;;;4130379;28;20104;-44
2022/09/13 01:16:57;;;;;;;1.75;0.43;;;;;;;;;;4145739;28;20057;-43
2022/09/13 01:18:59;;;;;;;0.30;0.30;;;;;;;;;;4146464;28;20493;-44
2022/09/13 01:21:24;;;;;;;0.30;0.30;;;;;;;;;;4147163;28;20061;-42
2022/09/13 01:23:50;;;;;;;0.70;0.40;;;;;;;;;;4146695;28;20054;-43
2022/09/13 01:25:54;;;;;;;0.73;0.55;;;;;;;;;;4145873;28;20096;-44
2022/09/13 01:28:02;;;;;;;0.65;0.40;;;;;;;;;;4146631;28;20061;-44
2022/09/13 01:30:08;;;;;;;0.55;0.40;;;;;;;;;;4146048;28;20092;-44
2022/09/13 01:32:31;;;;;;;0.60;0.43;;;;;;;;;;4145001;28;20062;-43
2022/09/13 01:34:40;;;;;;;0.50;0.38;;;;;;;;;;4144674;28;20108;-43
2022/09/13 01:37:27;;;;;;;0.30;0.30;;;;;;;;;;4148894;28;20057;-43
2022/09/13 01:39:40;;;;;;;0.57;0.57;;;;;;;;;;4146233;28;20061;-44
2022/09/13 01:41:46;;;;;;;0.93;0.60;;;;;;;;;;4148564;28;20065;-44
2022/09/13 01:44:21;;;;;;;0.57;0.52;;;;;;;;;;4148390;28;20417;-43
2022/09/13 01:46:50;;;;;;;0.68;0.40;;;;;;;;;;4148547;28;20124;-43
2022/09/13 01:49:13;;;;;;;0.60;0.43;;;;;;;;;;4141717;28;20097;-43
2022/09/13 01:51:25;;;;;;;0.65;0.50;;;;;;;;;;4132300;28;20447;-43
2022/09/13 01:53:44;;;;;;;0.55;0.50;;;;;;;;;;4132063;28;20061;-44
2022/09/13 01:55:59;;;;;;;0.70;0.38;;;;;;;;;;4132230;28;20565;-43
2022/09/13 01:58:10;;;;;;;0.70;0.50;;;;;;;;;;4114670;28;20141;-43
2022/09/13 02:00:14;;;;;;;0.60;0.43;;;;;;;;;;4146896;28;20567;-44
2022/09/13 02:02:35;;;;;;;0.40;0.32;;;;;;;;;;4146545;28;20555;-42
2022/09/13 02:04:40;;;;;;;0.73;0.68;;;;;;;;;;4132011;28;20050;-44
2022/09/13 02:06:45;;;;;;;0.60;0.50;;;;;;;;;;4131059;28;20105;-42
2022/09/13 02:08:50;;;;;;;0.45;0.40;;;;;;;;;;4130586;28;20481;-43
2022/09/13 02:11:07;;;;;;;1.02;0.50;;;;;;;;;;4147034;28;20076;-43
2022/09/13 02:13:13;;;;;;;0.52;0.40;;;;;;;;;;4146806;28;20053;-42
2022/09/13 02:15:22;;;;;;;1.15;0.50;;;;;;;;;;4131613;28;20054;-43
2022/09/13 02:17:26;;;;;;;0.30;0.30;;;;;;;;;;4129941;28;20062;-42
2022/09/13 02:19:35;;;;;;;0.63;0.52;;;;;;;;;;4146811;28;20050;-43
2022/09/13 02:21:38;;;;;;;0.85;0.60;;;;;;;;;;4145615;28;20124;-43
2022/09/13 02:23:55;;;;;;;0.90;0.60;;;;;;;;;;4145505;28;20049;-42
2022/09/13 02:25:57;;;;;;;0.50;0.50;;;;;;;;;;4145410;28;20108;-43
2022/09/13 02:28:02;;;;;;;0.63;0.50;;;;;;;;;;4147398;28;20054;-42
2022/09/13 02:30:09;;;;;;;0.82;0.63;;;;;;;;;;4146653;28;20054;-42
2022/09/13 02:32:40;;;;;;;0.40;0.40;;;;;;;;;;4147298;28;20087;-42
2022/09/13 02:34:45;;;;;;;0.55;0.40;;;;;;;;;;4146265;28;20490;-43
2022/09/13 02:36:47;;;;;;;0.55;0.40;;;;;;;;;;4147637;28;20120;-44
2022/09/13 02:38:54;;;;;;;0.30;0.30;;;;;;;;;;4131879;28;20093;-42
2022/09/13 02:41:11;;;;;;;0.30;0.30;;;;;;;;;;4131648;28;20058;-43
2022/09/13 02:43:20;;;;;;;0.52;0.40;;;;;;;;;;4130253;28;20379;-42
2022/09/13 02:45:28;;;;;;;0.98;0.60;;;;;;;;;;4146386;28;20567;-43
2022/09/13 02:47:38;;;;;;;0.60;0.40;;;;;;;;;;4129131;28;20112;-42
2022/09/13 02:50:12;;;;;;;0.47;0.47;;;;;;;;;;4133167;28;20055;-43
2022/09/13 02:52:34;;;;;;;0.60;0.30;;;;;;;;;;4147466;28;20531;-43
2022/09/13 02:54:42;;;;;;;0.38;0.38;;;;;;;;;;4147635;28;20054;-43
2022/09/13 02:56:52;;;;;;;0.40;0.40;;;;;;;;;;4146334;28;20046;-42
2022/09/13 02:59:12;;;;;;;;;;;;;;;;;;4148115;28;20052;-42
2022/09/13 03:01:14;;;;;;;;;;;;;;;;;;4148297;28;19980;-42
2022/09/13 03:03:15;;;;;;;0.50;0.40;;;;;;;;;;4146943;28;19956;-42
2022/09/13 03:05:17;;;;;;;1.10;0.45;;;;;;;;;;4147447;28;20096;-43
2022/09/13 03:07:18;;;;;;;0.47;0.40;;;;;;;;;;4146183;28;20475;-43
2022/09/13 03:09:19;;;;;;;0.60;0.40;;;;;;;;;;4146971;28;20104;-43
2022/09/13 03:11:49;;;;;;;0.47;0.35;;;;;;;;;;4147386;28;20504;-43
2022/09/13 03:13:53;;;;;;;;;;;;;;;;;;4146647;28;20080;-43
2022/09/13 03:16:00;;;;;;;0.85;0.60;;;;;;;;;;4146212;28;19925;-43
2022/09/13 03:18:27;;;;;;;0.40;0.40;;;;;;;;;;4146827;28;20049;-44
2022/09/13 03:20:36;;;;;;;1.02;0.80;;;;;;;;;;4147274;28;20049;-43
2022/09/13 03:22:49;;;;;;;0.30;0.30;;;;;;;;;;4147177;28;20058;-42
2022/09/13 03:25:17;;;;;;;0.60;0.45;;;;;;;;;;4147244;28;20068;-42
2022/09/13 03:27:27;;;;;;;0.40;0.40;;;;;;;;;;4145917;28;20054;-43
2022/09/13 03:29:37;;;;;;;0.40;0.35;;;;;;;;;;4130980;28;20053;-43
2022/09/13 03:31:52;;;;;;;0.60;0.50;;;;;;;;;;4131063;28;20051;-43
2022/09/13 03:34:12;;;;;;;0.50;0.40;;;;;;;;;;4145660;28;20120;-42
2022/09/13 03:36:29;;;;;;;0.40;0.40;;;;;;;;;;4146005;28;20575;-42
2022/09/13 03:38:48;;;;;;;0.43;0.30;;;;;;;;;;4129560;28;20061;-43
2022/09/13 03:40:56;;;;;;;0.65;0.40;;;;;;;;;;4129820;28;20484;-43
2022/09/13 03:43:12;;;;;;;0.43;0.30;;;;;;;;;;4129714;28;20066;-43
2022/09/13 03:45:15;;;;;;;0.40;0.40;;;;;;;;;;4129943;28;20059;-43
2022/09/13 03:47:18;;;;;;;0.43;0.40;;;;;;;;;;4130347;28;20073;-43
2022/09/13 03:49:22;;;;;;;0.60;0.60;;;;;;;;;;4130965;28;20050;-43
2022/09/13 03:51:24;;;;;;;0.40;0.40;;;;;;;;;;4130791;28;20083;-43
2022/09/13 03:53:27;;;;;;;0.35;0.30;;;;;;;;;;4130907;28;20054;-43
2022/09/13 03:55:30;;;;;;;0.43;0.30;;;;;;;;;;4129593;28;20144;-43
2022/09/13 03:57:31;;;;;;;0.30;0.30;;;;;;;;;;4129911;28;20100;-43
2022/09/13 03:59:35;;;;;;;0.47;0.30;;;;;;;;;;4134078;28;20386;-43
2022/09/13 04:01:36;;;;;;;1.33;0.52;;;;;;;;;;4133922;28;20730;-43
2022/09/13 04:03:38;;;;;;;0.80;0.43;;;;;;;;;;4133274;28;20054;-43
2022/09/13 04:05:39;;;;;;;0.40;0.40;;;;;;;;;;4133954;28;20054;-43
2022/09/13 04:07:41;;;;;;;0.85;0.57;;;;;;;;;;4133873;28;20054;-43
2022/09/13 04:09:42;;;;;;;0.50;0.40;;;;;;;;;;4133845;28;20190;-44
2022/09/13 04:11:43;;;;;;;0.50;0.50;;;;;;;;;;4134051;28;20084;-43
2022/09/13 04:13:44;;;;;;;0.40;0.38;;;;;;;;;;4133352;28;20738;-43
2022/09/13 04:15:45;;;;;;;0.38;0.35;;;;;;;;;;4132872;28;20117;-43
2022/09/13 04:17:47;;;;;;;0.30;0.30;;;;;;;;;;4146322;28;20082;-43
2022/09/13 04:19:48;;;;;;;0.47;0.47;;;;;;;;;;4150004;28;20053;-43
2022/09/13 04:21:50;;;;;;;0.40;0.40;;;;;;;;;;4149948;28;20107;-44
2022/09/13 04:23:52;;;;;;;0.45;0.40;;;;;;;;;;4149950;28;20053;-42
2022/09/13 04:25:53;;;;;;;0.47;0.38;;;;;;;;;;4149903;28;20482;-42
2022/09/13 04:27:55;;;;;;;1.00;0.40;;;;;;;;;;4149716;28;20564;-41
2022/09/13 04:29:56;;;;;;;1.05;0.50;;;;;;;;;;4149640;28;20390;-43
2022/09/13 04:31:57;;;;;;;0.35;0.35;;;;;;;;;;4149833;28;20050;-41
2022/09/13 04:33:59;;;;;;;0.25;0.25;;;;;;;;;;4149288;28;20096;-44
2022/09/13 04:36:00;;;;;;;0.50;0.40;;;;;;;;;;4149659;28;20057;-44
2022/09/13 04:38:02;;;;;;;0.32;0.30;;;;;;;;;;4149364;28;20551;-44
2022/09/13 04:40:06;;;;;;;0.57;0.40;;;;;;;;;;4149910;28;20057;-44
2022/09/13 04:42:09;;;;;;;0.47;0.38;;;;;;;;;;4149411;28;20053;-44
2022/09/13 04:44:10;;;;;;;0.40;0.40;;;;;;;;;;4148380;28;20050;-43
2022/09/13 04:46:11;;;;;;;0.45;0.40;;;;;;;;;;4149533;28;20104;-43
2022/09/13 04:48:12;;;;;;;0.43;0.43;;;;;;;;;;4148864;28;20058;-43
2022/09/13 04:50:13;;;;;;;0.50;0.50;;;;;;;;;;4149351;28;20093;-44
2022/09/13 04:52:15;;;;;;;0.85;0.40;;;;;;;;;;4149400;28;20058;-43
2022/09/13 04:54:16;;;;;;;0.40;0.30;;;;;;;;;;4147994;28;20092;-43
2022/09/13 04:56:18;;;;;;;0.68;0.50;;;;;;;;;;4149377;28;20488;-43
2022/09/13 04:58:20;;;;;;;0.35;0.30;;;;;;;;;;4149351;28;20104;-43
2022/09/13 05:00:21;;;;;;;0.60;0.45;;;;;;;;;;4146291;28;20129;-43
2022/09/13 05:02:23;;;;;;;0.30;0.30;;;;;;;;;;4146673;28;20053;-43
2022/09/13 05:04:24;;;;;;;0.40;0.40;;;;;;;;;;4146964;28;20568;-43
2022/09/13 05:06:25;;;;;;;0.43;0.40;;;;;;;;;;4147096;28;20084;-43
2022/09/13 05:08:26;;;;;;;0.47;0.30;;;;;;;;;;4147413;28;20166;-43
2022/09/13 05:10:27;;;;;;;0.60;0.50;;;;;;;;;;4146134;28;20107;-43
2022/09/13 05:12:29;;;;;;;0.73;0.63;;;;;;;;;;4147035;28;20061;-43
2022/09/13 05:14:31;;;;;;;0.32;0.30;;;;;;;;;;4147450;28;20108;-43
2022/09/13 05:16:32;;;;;;;0.70;0.50;;;;;;;;;;4146833;28;20100;-43
2022/09/13 05:18:35;;;;;;;0.38;0.38;;;;;;;;;;4146654;28;20058;-43
2022/09/13 05:20:36;;;;;;;0.45;0.45;;;;;;;;;;4147062;28;20070;-43
2022/09/13 05:22:37;;;;;;;0.47;0.40;;;;;;;;;;4146578;28;20559;-43
2022/09/13 05:24:38;;;;;;;0.57;0.50;;;;;;;;;;4143105;28;20124;-43
2022/09/13 05:26:40;;;;;;;0.73;0.50;;;;;;;;;;4146386;28;20092;-43
2022/09/13 05:28:41;;;;;;;0.40;0.40;;;;;;;;;;4143351;28;20058;-43
2022/09/13 05:30:42;;;;;;;0.98;0.60;;;;;;;;;;4144758;28;20109;-43
2022/09/13 05:32:43;;;;;;;0.90;0.47;;;;;;;;;;4143130;28;20081;-44
2022/09/13 05:34:45;;;;;;;0.45;0.38;;;;;;;;;;4141784;28;20054;-43
2022/09/13 05:36:49;;;;;;;1.23;0.40;;;;;;;;;;4139549;28;20057;-44
2022/09/13 05:38:54;;;;;;;0.82;0.60;;;;;;;;;;4142155;28;20647;-44
2022/09/13 05:40:57;;;;;;;1.15;0.70;;;;;;;;;;4140877;28;20595;-43
2022/09/13 05:42:58;;;;;;;0.77;0.63;;;;;;;;;;4133580;28;20332;-43
2022/09/13 05:45:00;;;;;;;0.30;0.30;;;;;;;;;;4139993;28;20951;-43
2022/09/13 05:47:01;;;;;;;0.80;0.47;;;;;;;;;;4142707;28;20050;-43
2022/09/13 05:49:03;;;;;;;0.43;0.30;;;;;;;;;;4138191;28;20089;-43
2022/09/13 05:51:09;;;;;;;0.60;0.40;;;;;;;;;;4137543;28;20473;-43
2022/09/13 05:53:10;;;;;;;0.68;0.55;;;;;;;;;;4134594;28;20100;-44
2022/09/13 05:55:11;;;;;;;0.55;0.47;;;;;;;;;;4135116;28;20100;-43
2022/09/13 05:57:13;;;;;;;0.68;0.60;;;;;;;;;;4130820;28;22363;-43
2022/09/13 05:59:14;;;;;;;0.40;0.40;;;;;;;;;;4129762;28;20052;-43
2022/09/13 06:01:18;;;;;;;0.60;0.57;;;;;;;;;;4133783;28;20057;-43
2022/09/13 06:03:19;;;;;;;0.80;0.40;;;;;;;;;;4134789;28;20061;-42
2022/09/13 06:05:20;;;;;;;0.55;0.40;;;;;;;;;;4125047;28;20062;-44
2022/09/13 06:07:21;;;;;;;2.45;0.60;;;;;;;;;;4123474;28;20718;-43
2022/09/13 06:09:22;;;;;;;0.88;0.50;;;;;;;;;;4127534;28;20046;-42
2022/09/13 06:11:25;;;;;;;0.40;0.40;;;;;;;;;;4142070;28;20151;-43
2022/09/13 06:13:27;;;;;;;2.75;0.52;;;;;;;;;;4121191;28;20057;-43
2022/09/13 06:15:28;;;;;;;0.68;0.60;;;;;;;;;;4133247;28;20075;-44
2022/09/13 06:17:30;;;;;;;1.75;0.40;;;;;;;;;;4127811;28;20123;-43
2022/09/13 06:19:31;;;;;;;0.80;0.52;;;;;;;;;;4127493;28;20042;-44
2022/09/13 06:21:33;;;;;;;0.80;0.47;;;;;;;;;;4125318;28;20058;-45
2022/09/13 06:23:34;;;;;;;1.10;0.50;;;;;;;;;;4133591;28;20089;-44
2022/09/13 06:25:36;;;;;;;1.35;0.73;;;;;;;;;;4114198;28;20058;-44
2022/09/13 06:27:38;;;;;;;0.82;0.50;;;;;;;;;;4123463;28;20058;-43
2022/09/13 06:29:39;;;;;;;0.52;0.32;;;;;;;;;;4114797;28;20054;-44
2022/09/13 06:31:43;;;;;;;1.00;0.47;;;;;;;;;;4087309;28;20054;-44
2022/09/13 06:33:45;;;;;;;0.60;0.40;;;;;;;;;;4113491;28;20084;-43
2022/09/13 06:35:46;;;;;;;1.75;0.60;;;;;;;;;;4124608;28;20512;-44
2022/09/13 06:37:47;;;;;;;1.63;0.50;;;;;;;;;;4124436;28;20547;-44
2022/09/13 06:39:49;;;;;;;2.28;0.50;;;;;;;;;;4128613;28;20497;-44
2022/09/13 06:41:50;;;;;;;1.20;0.55;;;;;;;;;;4119105;28;20722;-44
2022/09/13 06:43:59;;;;;;;1.70;0.60;;;;;;;;;;4122594;28;20058;-43
2022/09/13 06:46:05;;;;;;;1.00;0.50;;;;;;;;;;4132166;28;20057;-44
2022/09/13 06:48:06;;;;;;;0.68;0.47;;;;;;;;;;4121664;28;20116;-44
2022/09/13 06:50:08;;;;;;;3.00;0.63;;;;;;;;;;4111178;28;20121;-45
2022/09/13 06:52:09;;;;;;;0.50;0.38;;;;;;;;;;4118644;28;20065;-44
2022/09/13 06:54:11;;;;;;;1.25;0.50;;;;;;;;;;4124175;28;20089;-44
2022/09/13 06:56:45;;;;;;;0.57;0.50;;;;;;;;;;4126247;28;20998;-44
2022/09/13 06:58:49;;;;;;;2.17;0.65;;;;;;;;;;4122543;28;20942;-43
2022/09/13 07:00:51;;;;;;;0.70;0.30;;;;;;;;;;4110752;28;21432;-44
2022/09/13 07:02:52;;;;;;;0.68;0.52;;;;;;;;;;4088900;28;20619;-45
2022/09/13 07:04:53;;;;;;;1.05;0.50;;;;;;;;;;4108153;28;20116;-45
2022/09/13 07:06:54;;;;;;;0.68;0.40;;;;;;;;;;4105908;28;20062;-44
2022/09/13 07:08:57;;;;;;;2.08;0.47;;;;;;;;;;4108407;28;20589;-44
2022/09/13 07:10:58;;;;;;;2.30;0.57;;;;;;;;;;4116434;28;20724;-44
2022/09/13 07:12:59;;;;;;;5.22;0.93;;;;;;;;;;4104379;28;20137;-44
2022/09/13 07:15:00;;;;;;;0.52;0.45;;;;;;;;;;4116540;28;20053;-44
2022/09/13 07:17:02;;;;;;;3.65;0.52;;;;;;;;;;4119074;28;20688;-45
2022/09/13 07:19:11;;;;;;;2.50;0.52;;;;;;;;;;4117976;28;20053;-45
2022/09/13 07:21:12;;;;;;;1.70;0.47;;;;;;;;;;4113553;28;20471;-45
2022/09/13 07:23:14;;;;;;;0.52;0.40;;;;;;;;;;4116800;28;20110;-45
2022/09/13 07:25:15;;;;;;;1.17;0.60;;;;;;;;;;4104595;28;20516;-45
2022/09/13 07:27:16;;;;;;;2.42;0.57;;;;;;;;;;4110287;28;20140;-45
2022/09/13 07:29:21;;;;;;;0.68;0.43;;;;;;;;;;4103143;28;20361;-45
2022/09/13 07:31:36;;;;;;;1.05;0.55;;;;;;;;;;4105887;28;20123;-45
2022/09/13 07:33:39;;;;;;;1.23;0.50;;;;;;;;;;4103129;28;20406;-46
2022/09/13 07:35:40;;;;;;;0.88;0.57;;;;;;;;;;4121907;28;20057;-45
2022/09/13 07:37:41;;;;;;;1.98;0.43;;;;;;;;;;4122226;28;20061;-46
2022/09/13 07:39:42;;;;;;;0.82;0.50;;;;;;;;;;4127022;28;20050;-47
2022/09/13 07:41:45;;;;;;;0.40;0.40;;;;;;;;;;4116447;28;20104;-46
2022/09/13 07:43:46;;;;;;;1.40;0.47;;;;;;;;;;4108255;28;20126;-45
2022/09/13 07:45:47;;;;;;;1.15;0.50;;;;;;;;;;4120182;28;20111;-44
2022/09/13 07:47:52;;;;;;;1.30;0.40;;;;;;;;;;4101183;28;20057;-45
2022/09/13 07:49:53;;;;;;;0.75;0.40;;;;;;;;;;4120892;28;20050;-46
2022/09/13 07:51:54;;;;;;;0.98;0.50;;;;;;;;;;4114851;28;20362;-44
2022/09/13 07:53:57;;;;;;;2.30;0.43;;;;;;;;;;4102211;28;20096;-45
2022/09/13 07:56:03;;;;;;;1.35;0.50;;;;;;;;;;4108443;28;20061;-45
2022/09/13 07:58:04;;;;;;;0.50;0.47;;;;;;;;;;4116269;28;20650;-45
2022/09/13 08:00:06;;;;;;;0.77;0.60;;;;;;;;;;4115316;28;20049;-44
2022/09/13 08:02:14;;;;;;;0.60;0.43;;;;;;;;;;4094550;28;20049;-45
2022/09/13 08:04:20;;;;;;;1.85;0.43;;;;;;;;;;4111207;28;20100;-45
2022/09/13 08:06:22;;;;;;;3.70;0.60;;;;;;;;;;4114980;28;20721;-46
2022/09/13 08:08:23;;;;;;;0.93;0.55;;;;;;;;;;4116540;28;20462;-45
2022/09/13 08:10:24;;;;;;;1.42;0.50;;;;;;;;;;4126865;28;20053;-45
2022/09/13 08:12:25;;;;;;;0.77;0.50;;;;;;;;;;4120589;28;20409;-44
2022/09/13 08:14:27;;;;;;;0.80;0.70;;;;;;;;;;4118230;28;20053;-45
2022/09/13 08:16:29;;;;;;;4.10;0.70;;;;;;;;;;4104603;28;20104;-44
2022/09/13 08:18:30;;;;;;;2.03;0.60;;;;;;;;;;4113441;28;20054;-45
2022/09/13 08:20:37;;;;;;;1.05;0.43;;;;;;;;;;4112820;28;20445;-44
2022/09/13 08:22:38;;;;;;;0.50;0.45;;;;;;;;;;4116113;28;20389;-44
2022/09/13 08:24:39;;;;;;;1.45;0.40;;;;;;;;;;4118524;28;20104;-45
2022/09/13 08:26:40;;;;;;;2.25;0.40;;;;;;;;;;4117269;28;22511;-46
2022/09/13 08:28:42;;;;;;;1.23;0.63;;;;;;;;;;4105414;28;20058;-46
2022/09/13 08:30:43;;;;;;;1.50;0.68;;;;;;;;;;4106972;28;21004;-45
2022/09/13 08:32:49;;;;;;;1.58;0.43;;;;;;;;;;4103739;28;20054;-45
2022/09/13 08:34:50;;;;;;;0.60;0.45;;;;;;;;;;4112893;28;20069;-45
2022/09/13 08:36:51;;;;;;;1.65;0.80;;;;;;;;;;4113573;28;20057;-47
2022/09/13 08:38:58;;;;;;;0.77;0.52;;;;;;;;;;4116285;28;20124;-45
2022/09/13 08:41:04;;;;;;;0.50;0.50;;;;;;;;;;4109884;28;20462;-45
2022/09/13 08:43:18;;;;;;;0.40;0.40;;;;;;;;;;4110756;28;20076;-45
2022/09/13 08:45:21;;;;;;;2.72;0.52;;;;;;;;;;4112485;28;20489;-46
2022/09/13 08:47:36;;;;;;;0.82;0.50;;;;;;;;;;4103202;28;20100;-45
2022/09/13 08:49:43;;;;;;;0.40;0.40;;;;;;;;;;4096559;28;20057;-45
2022/09/13 08:51:47;;;;;;;0.77;0.38;;;;;;;;;;4113730;28;20050;-45
2022/09/13 08:53:49;;;;;;;1.02;0.30;;;;;;;;;;4108426;28;20062;-46
2022/09/13 08:56:02;;;;;;;0.57;0.40;;;;;;;;;;4115114;28;20422;-46
2022/09/13 08:58:22;;;;;;;0.77;0.40;;;;;;;;;;4109468;28;20089;-45
2022/09/13 09:00:29;;;;;;;;;;;;;;;;;;4113310;28;20168;-44
2022/09/13 09:02:56;;;;;;;1.02;0.30;;;;;;;;;;4099934;28;19929;-45
2022/09/13 09:05:12;;;;;;;3.10;0.45;;;;;;;;;;4111791;28;20085;-48
2022/09/13 09:07:20;;;;;;;0.73;0.40;;;;;;;;;;4094035;28;20057;-44
2022/09/13 09:09:21;;;;;;;0.80;0.45;;;;;;;;;;4112592;28;20132;-47
2022/09/13 09:11:48;;;;;;;0.30;0.30;;;;;;;;;;4112244;28;20804;-43
2022/09/13 09:13:58;;;;;;;0.60;0.30;;;;;;;;;;4103670;28;20057;-44
2022/09/13 09:16:37;;;;;;;3.45;0.32;;;;;;;;;;4098370;28;20058;-46
2022/09/13 09:18:42;;;;;;;0.77;0.45;;;;;;;;;;4123790;28;20060;-43
2022/09/13 09:20:45;;;;;;;0.82;0.45;;;;;;;;;;4120167;28;20887;-44
2022/09/13 09:22:48;;;;;;;1.10;0.40;;;;;;;;;;4116729;28;20062;-47
2022/09/13 09:24:56;;;;;;;0.88;0.30;;;;;;;;;;4097257;28;20797;-44
2022/09/13 09:26:58;;;;;;;0.68;0.55;;;;;;;;;;4107741;28;20057;-44
2022/09/13 09:29:18;;;;;;;0.65;0.52;;;;;;;;;;4108064;28;20664;-44
2022/09/13 09:31:42;;;;;;;2.00;0.30;;;;;;;;;;4110321;28;20109;-44
2022/09/13 09:33:59;;;;;;;1.23;0.50;;;;;;;;;;4093705;28;20057;-45
2022/09/13 09:36:06;;;;;;;2.80;0.60;;;;;;;;;;4109230;28;21184;-45
2022/09/13 09:38:31;;;;;;;0.60;0.38;;;;;;;;;;4107326;28;20057;-45
2022/09/13 09:40:34;;;;;;;1.15;0.28;;;;;;;;;;4116857;28;20856;-44
2022/09/13 09:42:41;;;;;;;2.67;0.50;;;;;;;;;;4113708;28;20502;-46
2022/09/13 09:44:49;;;;;;;0.57;0.30;;;;;;;;;;4113708;28;20115;-44
2022/09/13 09:46:55;;;;;;;0.88;0.40;;;;;;;;;;4110810;28;21540;-45
2022/09/13 09:50:07;;;;;;;2.53;0.50;;;;;;;;;;4124278;28;20866;-46
2022/09/13 09:51:27;;;;;;;0.63;0.35;;;;;;;;;;4112883;28;20127;-45
2022/09/13 09:53:32;;;;;;;1.38;0.43;;;;;;;;;;4107634;28;20057;-44
2022/09/13 09:55:40;;;;;;;0.93;0.50;;;;;;;;;;4108665;28;21958;-45
2022/09/13 09:57:54;;;;;;;0.60;0.40;;;;;;;;;;4137656;28;20049;-44
2022/09/13 10:00:09;;;;;;;0.40;0.28;;;;;;;;;;4115867;28;20459;-45
2022/09/13 10:02:16;;;;;;;0.82;0.40;;;;;;;;;;4125601;28;20132;-44
2022/09/13 10:04:21;;;;;;;2.80;0.40;;;;;;;;;;4122290;28;20062;-45
2022/09/13 10:06:24;;;;;;;0.85;0.47;;;;;;;;;;4123848;28;20054;-45
2022/09/13 10:08:31;;;;;;;1.05;0.40;;;;;;;;;;4134264;28;20053;-45
2022/09/13 10:10:40;;;;;;;0.47;0.40;;;;;;;;;;4123683;28;20053;-45
2022/09/13 10:12:41;;;;;;;0.65;0.50;;;;;;;;;;4123866;28;20112;-45
2022/09/13 10:14:45;;;;;;;2.95;0.30;;;;;;;;;;4110104;28;20062;-45
2022/09/13 10:16:46;;;;;;;2.30;0.50;;;;;;;;;;4104336;28;20650;-45
2022/09/13 10:18:47;;;;;;;0.43;0.40;;;;;;;;;;4105990;28;20659;-47
2022/09/13 10:21:03;;;;;;;2.15;0.40;;;;;;;;;;4131915;28;20049;-47
2022/09/13 10:23:13;;;;;;;1.67;0.43;;;;;;;;;;4119146;28;20140;-45
2022/09/13 10:25:21;;;;;;;;;;;;;;;;;;4112867;28;20536;-45
2022/09/13 10:27:34;;;;;;;0.95;0.40;;;;;;;;;;4111966;28;20249;-45
2022/09/13 10:29:35;;;;;;;0.75;0.40;;;;;;;;;;4104330;28;20061;-47
2022/09/13 10:31:40;;;;;;;0.60;0.40;;;;;;;;;;4113824;28;20057;-46
2022/09/13 10:33:49;;;;;;;0.52;0.40;;;;;;;;;;4107702;28;20112;-46
2022/09/13 10:35:53;;;;;;;0.75;0.40;;;;;;;;;;4120569;28;20270;-46
2022/09/13 10:37:54;;;;;;;2.13;0.50;;;;;;;;;;4121435;28;20061;-47
2022/09/13 10:40:12;;;;;;;1.35;0.35;;;;;;;;;;4102866;28;22031;-45
2022/09/13 10:42:20;;;;;;;0.70;0.30;;;;;;;;;;4114323;28;20062;-45
2022/09/13 10:44:28;;;;;;;0.40;0.40;;;;;;;;;;4118899;28;20088;-46
2022/09/13 10:46:34;;;;;;;1.33;0.52;;;;;;;;;;4136030;28;20136;-45
2022/09/13 10:48:46;;;;;;;0.60;0.50;;;;;;;;;;4110332;28;20826;-46
2022/09/13 10:51:14;;;;;;;2.70;0.70;;;;;;;;;;4112639;28;20969;-46
2022/09/13 10:53:37;;;;;;;3.33;0.50;;;;;;;;;;4119620;28;20194;-45
2022/09/13 10:55:42;;;;;;;0.88;0.40;;;;;;;;;;4111926;28;20541;-44
2022/09/13 10:57:46;;;;;;;1.02;0.43;;;;;;;;;;4116736;28;21271;-45
2022/09/13 10:59:53;;;;;;;0.80;0.50;;;;;;;;;;4114981;28;20417;-45
2022/09/13 11:02:25;;;;;;;1.67;0.32;;;;;;;;;;4131077;28;20054;-46
2022/09/13 11:04:26;;;;;;;2.20;0.40;;;;;;;;;;4114948;28;20057;-45
2022/09/13 11:06:41;;;;;;;1.02;0.47;;;;;;;;;;4124629;28;20108;-47
2022/09/13 11:08:52;;;;;;;0.88;0.32;;;;;;;;;;4120681;28;20062;-45
2022/09/13 11:11:14;;;;;;;0.98;0.50;;;;;;;;;;4121062;28;20144;-46
2022/09/13 11:13:41;;;;;;;1.60;0.50;;;;;;;;;;4125890;28;20053;-45
2022/09/13 11:15:52;;;;;;;0.68;0.43;;;;;;;;;;4122004;28;20425;-46
2022/09/13 11:18:03;;;;;;;2.28;0.50;;;;;;;;;;4122700;28;20124;-46
2022/09/13 11:20:21;;;;;;;0.40;0.40;;;;;;;;;;4120983;28;20144;-44
2022/09/13 11:22:38;;;;;;;1.85;0.63;;;;;;;;;;4143049;28;20065;-44
2022/09/13 11:24:50;;;;;;;0.80;0.70;;;;;;;;;;4120015;28;20561;-45
2022/09/13 11:26:56;;;;;;;0.85;0.40;;;;;;;;;;4124943;28;20116;-46
2022/09/13 11:29:19;;;;;;;1.15;0.55;;;;;;;;;;4121422;28;20058;-45
2022/09/13 11:32:02;;;;;;;1.42;0.50;;;;;;;;;;4127555;28;20069;-45
2022/09/13 11:34:24;;;;;;;1.08;0.50;;;;;;;;;;4135151;28;20100;-45
2022/09/13 11:36:33;;;;;;;1.38;0.60;;;;;;;;;;4113890;28;20156;-48
2022/09/13 11:38:40;;;;;;;2.05;0.40;;;;;;;;;;4120257;28;20058;-44
2022/09/13 11:40:47;;;;;;;1.13;0.60;;;;;;;;;;4124440;28;22789;-47
2022/09/13 11:43:07;;;;;;;2.17;0.70;;;;;;;;;;4118976;28;22257;-46
2022/09/13 11:45:17;;;;;;;3.70;0.50;;;;;;;;;;4121632;28;20615;-46
2022/09/13 11:47:23;;;;;;;0.60;0.52;;;;;;;;;;4119635;28;20132;-45
2022/09/13 11:49:53;;;;;;;1.65;0.68;;;;;;;;;;4120887;28;20053;-46
2022/09/13 11:52:06;;;;;;;;;;;;;;;;;;4120502;28;20443;-46
2022/09/13 11:54:13;;;;;;;1.88;0.50;;;;;;;;;;4119930;28;20371;-46
2022/09/13 11:56:42;;;;;;;0.93;0.40;;;;;;;;;;4122306;28;20069;-47
2022/09/13 11:58:53;;;;;;;1.30;0.40;;;;;;;;;;4113265;28;20095;-46
2022/09/13 12:01:00;;;;;;;0.88;0.50;;;;;;;;;;4104916;28;20061;-45
2022/09/13 12:03:01;;;;;;;0.57;0.40;;;;;;;;;;4118261;28;20635;-45
2022/09/13 12:05:07;;;;;;;2.35;0.60;;;;;;;;;;4122995;28;20058;-45
2022/09/13 12:07:13;;;;;;;0.40;0.40;;;;;;;;;;4106570;28;20054;-44
2022/09/13 12:09:35;;;;;;;1.20;0.60;;;;;;;;;;4125002;28;21337;-44
2022/09/13 12:11:43;;;;;;;1.38;0.50;;;;;;;;;;4122369;28;20064;-46
2022/09/13 12:13:49;;;;;;;0.90;0.35;;;;;;;;;;4125253;28;20050;-46
2022/09/13 12:15:53;;;;;;;0.50;0.30;;;;;;;;;;4124226;28;20062;-45
2022/09/13 12:17:59;;;;;;;0.98;0.60;;;;;;;;;;4122273;28;20062;-46
2022/09/13 12:20:01;;;;;;;0.47;0.35;;;;;;;;;;4124422;28;20054;-46
2022/09/13 12:22:02;;;;;;;1.00;0.30;;;;;;;;;;4142436;28;20103;-46
2022/09/13 12:24:07;;;;;;;1.88;0.70;;;;;;;;;;4127156;28;20321;-45
2022/09/13 12:26:19;;;;;;;0.80;0.50;;;;;;;;;;4128528;28;20061;-47
2022/09/13 12:28:23;;;;;;;1.17;0.63;;;;;;;;;;4128289;28;20124;-45
2022/09/13 12:30:36;;;;;;;1.58;0.50;;;;;;;;;;4141135;28;20053;-46
2022/09/13 12:32:37;;;;;;;1.10;0.55;;;;;;;;;;4108701;28;20062;-45
2022/09/13 12:34:45;;;;;;;0.80;0.52;;;;;;;;;;4129906;28;20114;-46
2022/09/13 12:36:59;;;;;;;1.40;0.40;;;;;;;;;;4125293;28;20438;-44
2022/09/13 12:39:26;;;;;;;1.05;0.43;;;;;;;;;;4126154;28;20579;-44
2022/09/13 12:42:01;;;;;;;0.35;0.35;;;;;;;;;;4128998;28;20490;-44
2022/09/13 12:44:24;;;;;;;0.80;0.50;;;;;;;;;;4120492;28;20108;-44